createdAt,value
2022-11-15T00:00:58.659Z,1303.61
2022-11-15T00:01:58.693Z,1303.61
2022-11-15T00:02:58.638Z,1303.61
2022-11-15T00:03:58.633Z,1303.61
2022-11-15T00:04:58.642Z,1303.61
2022-11-15T00:05:58.599Z,1303.61
2022-11-15T00:06:58.645Z,1303.61
2022-11-15T00:07:58.671Z,1303.61
2022-11-15T00:08:58.582Z,1303.61
2022-11-15T00:09:58.555Z,1303.61
2022-11-15T00:10:58.581Z,1303.61
2022-11-15T00:11:58.534Z,1303.61
2022-11-15T00:12:58.528Z,1303.61
2022-11-15T00:13:58.526Z,1303.61
2022-11-15T00:14:58.506Z,1303.61
2022-11-15T00:15:58.494Z,1303.61
2022-11-15T00:16:58.498Z,1303.61
2022-11-15T00:17:58.475Z,1303.61
2022-11-15T00:18:58.470Z,1303.61
2022-11-15T00:19:58.464Z,1303.61
2022-11-15T00:20:58.462Z,1303.61
2022-11-15T00:21:58.450Z,1303.61
2022-11-15T00:22:58.471Z,1303.61
2022-11-15T00:23:58.402Z,1303.61
2022-11-15T00:24:58.399Z,1303.61
2022-11-15T00:25:58.381Z,1303.61
2022-11-15T00:26:58.436Z,1303.61
2022-11-15T00:27:58.363Z,1303.61
2022-11-15T00:28:58.353Z,1303.61
2022-11-15T00:29:58.352Z,1303.61
2022-11-15T00:30:58.333Z,1303.61
2022-11-15T00:31:58.320Z,1303.61
2022-11-15T00:32:58.308Z,1303.61
2022-11-15T00:33:58.292Z,1303.61
2022-11-15T00:34:58.299Z,1303.61
2022-11-15T00:35:58.270Z,1303.61
2022-11-15T00:36:58.288Z,1303.61
2022-11-15T00:37:58.248Z,1303.61
2022-11-15T00:38:58.257Z,1303.61
2022-11-15T00:39:58.226Z,1303.61
2022-11-15T00:40:58.257Z,1303.61
2022-11-15T00:41:58.204Z,1303.61
2022-11-15T00:42:58.213Z,1303.61
2022-11-15T00:43:58.181Z,1303.61
2022-11-15T00:45:05.206Z,1303.61
2022-11-15T00:45:58.166Z,1303.61
2022-11-15T00:46:58.149Z,1303.61
2022-11-15T00:47:58.142Z,1303.61
2022-11-15T00:48:58.142Z,1303.61
2022-11-15T00:49:58.120Z,1303.61
2022-11-15T00:50:58.106Z,1303.61
2022-11-15T00:51:58.098Z,1303.61
2022-11-15T00:52:58.121Z,1303.61
2022-11-15T00:53:58.076Z,1303.61
2022-11-15T00:54:58.075Z,1303.61
2022-11-15T00:55:58.069Z,1303.61
2022-11-15T00:56:58.041Z,1303.61
2022-11-15T00:57:58.033Z,1303.61
2022-11-15T00:58:58.032Z,1303.61
2022-11-15T00:59:58.014Z,1303.61
2022-11-15T01:00:58.062Z,1303.61
2022-11-15T01:01:57.991Z,1303.61
2022-11-15T01:02:58.018Z,1303.61
2022-11-15T01:04:01.292Z,1303.61
2022-11-15T01:04:57.951Z,1303.61
2022-11-15T01:05:57.944Z,1303.61
2022-11-15T01:06:57.995Z,1303.61
2022-11-15T01:07:58.033Z,1303.61
2022-11-15T01:08:57.926Z,1303.61
2022-11-15T01:09:57.919Z,1303.61
2022-11-15T01:10:57.888Z,1303.61
2022-11-15T01:11:57.881Z,1303.61
2022-11-15T01:12:57.875Z,1303.61
2022-11-15T01:13:57.857Z,1303.61
2022-11-15T01:14:57.842Z,1303.61
2022-11-15T01:15:57.833Z,1303.61
2022-11-15T01:16:57.834Z,1303.61
2022-11-15T01:17:57.826Z,1303.61
2022-11-15T01:18:57.796Z,1303.61
2022-11-15T01:19:57.792Z,1303.61
2022-11-15T01:20:57.775Z,1303.61
2022-11-15T01:21:57.780Z,1303.61
2022-11-15T01:22:57.768Z,1303.61
2022-11-15T01:23:57.763Z,1303.61
2022-11-15T01:24:57.753Z,1303.61
2022-11-15T01:25:57.724Z,1303.61
2022-11-15T01:26:57.709Z,1303.61
2022-11-15T01:27:57.715Z,1303.61
2022-11-15T01:28:57.706Z,1303.61
2022-11-15T01:29:57.707Z,1303.61
2022-11-15T01:30:57.664Z,1303.61
2022-11-15T01:31:57.673Z,1303.61
2022-11-15T01:32:57.659Z,1303.61
2022-11-15T01:33:57.641Z,1303.61
2022-11-15T01:34:57.623Z,1303.61
2022-11-15T01:35:57.617Z,1303.61
2022-11-15T01:36:57.599Z,1303.61
2022-11-15T01:37:57.621Z,1303.61
2022-11-15T01:38:57.579Z,1303.61
2022-11-15T01:39:57.574Z,1303.61
2022-11-15T01:40:57.588Z,1303.61
2022-11-15T01:41:57.549Z,1303.61
2022-11-15T01:42:57.547Z,1303.61
2022-11-15T01:43:57.541Z,1303.61
2022-11-15T01:44:57.512Z,1303.61
2022-11-15T01:45:57.507Z,1303.61
2022-11-15T01:46:57.505Z,1303.61
2022-11-15T01:47:57.498Z,1303.61
2022-11-15T01:48:57.468Z,1303.61
2022-11-15T01:49:57.476Z,1303.61
2022-11-15T01:50:57.446Z,1303.61
2022-11-15T01:51:57.442Z,1303.61
2022-11-15T01:52:57.438Z,1303.61
2022-11-15T01:53:57.416Z,1303.61
2022-11-15T01:54:57.404Z,1303.61
2022-11-15T01:55:57.394Z,1303.61
2022-11-15T01:56:57.411Z,1303.61
2022-11-15T01:57:57.387Z,1303.61
2022-11-15T01:58:57.359Z,1303.61
2022-11-15T01:59:57.350Z,1303.61
2022-11-15T02:00:57.357Z,1303.61
2022-11-15T02:01:57.330Z,1303.61
2022-11-15T02:02:57.325Z,1303.61
2022-11-15T02:03:57.308Z,1303.61
2022-11-15T02:04:57.324Z,1303.61
2022-11-15T02:05:57.284Z,1303.61
2022-11-15T02:06:57.318Z,1303.61
2022-11-15T02:07:57.275Z,1303.61
2022-11-15T02:08:57.248Z,1303.61
2022-11-15T02:09:57.252Z,1303.61
2022-11-15T02:10:57.226Z,1303.61
2022-11-15T02:11:57.228Z,1303.61
2022-11-15T02:12:57.221Z,1303.61
2022-11-15T02:13:57.196Z,1303.61
2022-11-15T02:14:57.191Z,1303.61
2022-11-15T02:16:02.652Z,1303.61
2022-11-15T02:16:58.161Z,1303.61
2022-11-15T02:17:57.178Z,1303.61
2022-11-15T02:18:57.137Z,1303.61
2022-11-15T02:19:57.143Z,1303.61
2022-11-15T02:20:57.115Z,1303.61
2022-11-15T02:21:57.107Z,1303.61
2022-11-15T02:22:57.095Z,1303.61
2022-11-15T02:23:57.102Z,1303.61
2022-11-15T02:24:57.088Z,1303.61
2022-11-15T02:25:57.064Z,1303.61
2022-11-15T02:26:57.048Z,1303.61
2022-11-15T02:27:57.041Z,1303.61
2022-11-15T02:28:57.046Z,1303.61
2022-11-15T02:29:57.052Z,1303.61
2022-11-15T02:30:57.009Z,1303.61
2022-11-15T02:31:56.999Z,1303.61
2022-11-15T02:32:56.982Z,1303.61
2022-11-15T02:33:56.978Z,1303.61
2022-11-15T02:34:56.960Z,1303.61
2022-11-15T02:35:56.968Z,1303.61
2022-11-15T02:36:56.962Z,1303.61
2022-11-15T02:37:56.932Z,1303.61
2022-11-15T02:38:56.915Z,1303.61
2022-11-15T02:39:56.911Z,1303.61
2022-11-15T02:40:56.895Z,1303.61
2022-11-15T02:41:56.898Z,1303.61
2022-11-15T02:42:56.887Z,1303.61
2022-11-15T02:43:56.864Z,1303.61
2022-11-15T02:44:56.867Z,1303.61
2022-11-15T02:46:04.359Z,1303.61
2022-11-15T02:46:56.861Z,1303.61
2022-11-15T02:47:56.819Z,1303.61
2022-11-15T02:48:56.818Z,1303.61
2022-11-15T02:49:56.809Z,1303.61
2022-11-15T02:50:56.788Z,1303.61
2022-11-15T02:51:56.779Z,1303.61
2022-11-15T02:52:56.766Z,1303.61
2022-11-15T02:53:56.768Z,1303.61
2022-11-15T02:54:56.743Z,1303.61
2022-11-15T02:55:56.730Z,1303.61
2022-11-15T02:56:56.733Z,1303.61
2022-11-15T02:57:56.725Z,1303.61
2022-11-15T02:58:56.699Z,1303.61
2022-11-15T02:59:56.705Z,1303.61
2022-11-15T03:00:56.778Z,1303.61
2022-11-15T03:01:56.666Z,1303.61
2022-11-15T03:02:56.672Z,1303.61
2022-11-15T03:03:56.655Z,1303.61
2022-11-15T03:04:56.653Z,1303.61
2022-11-15T03:05:56.653Z,1303.61
2022-11-15T03:06:56.700Z,1303.61
2022-11-15T03:08:01.896Z,1303.61
2022-11-15T03:08:57.598Z,1303.61
2022-11-15T03:09:56.578Z,1303.61
2022-11-15T03:10:56.579Z,1303.61
2022-11-15T03:11:56.576Z,1303.61
2022-11-15T03:12:56.550Z,1303.61
2022-11-15T03:13:56.538Z,1303.61
2022-11-15T03:14:56.524Z,1303.61
2022-11-15T03:15:56.511Z,1303.61
2022-11-15T03:16:56.526Z,1303.61
2022-11-15T03:17:56.508Z,1303.61
2022-11-15T03:18:56.474Z,1303.61
2022-11-15T03:19:56.471Z,1303.61
2022-11-15T03:20:56.465Z,1303.61
2022-11-15T03:21:56.458Z,1303.61
2022-11-15T03:22:56.429Z,1303.61
2022-11-15T03:23:56.457Z,1303.61
2022-11-15T03:24:56.409Z,1303.61
2022-11-15T03:25:56.404Z,1303.61
2022-11-15T03:26:56.386Z,1303.61
2022-11-15T03:27:56.392Z,1303.61
2022-11-15T03:28:56.375Z,1303.61
2022-11-15T03:29:56.375Z,1303.61
2022-11-15T03:30:56.345Z,1303.61
2022-11-15T03:31:56.348Z,1303.61
2022-11-15T03:32:56.344Z,1303.61
2022-11-15T03:33:56.314Z,1303.61
2022-11-15T03:34:56.306Z,1303.61
2022-11-15T03:35:56.306Z,1303.61
2022-11-15T03:36:56.309Z,1303.61
2022-11-15T03:37:57.106Z,1303.61
2022-11-15T03:38:56.271Z,1303.61
2022-11-15T03:39:56.263Z,1303.61
2022-11-15T03:40:56.238Z,1303.61
2022-11-15T03:41:56.256Z,1303.61
2022-11-15T03:42:56.227Z,1303.61
2022-11-15T03:43:56.219Z,1303.61
2022-11-15T03:44:56.189Z,1303.61
2022-11-15T03:45:56.184Z,1303.61
2022-11-15T03:46:56.168Z,1303.61
2022-11-15T03:47:56.221Z,1303.61
2022-11-15T03:48:56.165Z,1303.61
2022-11-15T03:49:56.143Z,1303.61
2022-11-15T03:50:56.133Z,1303.61
2022-11-15T03:51:56.118Z,1303.61
2022-11-15T03:52:56.136Z,1303.61
2022-11-15T03:53:56.113Z,1303.61
2022-11-15T03:54:56.085Z,1303.61
2022-11-15T03:55:56.075Z,1303.61
2022-11-15T03:56:56.059Z,1303.61
2022-11-15T03:57:56.071Z,1303.61
2022-11-15T03:58:56.042Z,1303.61
2022-11-15T03:59:56.036Z,1303.61
2022-11-15T04:00:56.056Z,1303.61
2022-11-15T04:01:56.034Z,1303.61
2022-11-15T04:02:56.027Z,1303.61
2022-11-15T04:03:56.029Z,1303.61
2022-11-15T04:04:55.994Z,1303.61
2022-11-15T04:05:55.970Z,1303.61
2022-11-15T04:06:55.988Z,1303.61
2022-11-15T04:07:55.959Z,1303.61
2022-11-15T04:08:55.946Z,1303.61
2022-11-15T04:09:55.923Z,1303.61
2022-11-15T04:10:55.997Z,1303.61
2022-11-15T04:11:55.920Z,1303.61
2022-11-15T04:12:55.884Z,1303.61
2022-11-15T04:13:55.909Z,1303.61
2022-11-15T04:14:55.863Z,1303.61
2022-11-15T04:15:55.860Z,1303.61
2022-11-15T04:16:55.845Z,1303.61
2022-11-15T04:17:55.841Z,1303.61
2022-11-15T04:18:55.832Z,1303.61
2022-11-15T04:19:55.834Z,1303.61
2022-11-15T04:20:55.819Z,1303.61
2022-11-15T04:21:55.793Z,1303.61
2022-11-15T04:22:55.776Z,1303.61
2022-11-15T04:23:55.796Z,1303.61
2022-11-15T04:24:55.766Z,1303.61
2022-11-15T04:25:55.749Z,1303.61
2022-11-15T04:26:55.750Z,1303.61
2022-11-15T04:27:55.734Z,1303.61
2022-11-15T04:28:55.724Z,1303.61
2022-11-15T04:29:55.716Z,1303.61
2022-11-15T04:30:55.721Z,1303.61
2022-11-15T04:31:55.718Z,1303.61
2022-11-15T04:32:55.684Z,1303.61
2022-11-15T04:33:55.676Z,1303.61
2022-11-15T04:34:55.656Z,1303.61
2022-11-15T04:35:55.638Z,1303.61
2022-11-15T04:36:55.657Z,1303.61
2022-11-15T04:37:55.621Z,1303.61
2022-11-15T04:38:55.609Z,1303.61
2022-11-15T04:39:55.598Z,1303.61
2022-11-15T04:40:55.607Z,1303.61
2022-11-15T04:41:55.574Z,1303.61
2022-11-15T04:43:02.253Z,1303.61
2022-11-15T04:43:56.575Z,1303.61
2022-11-15T04:44:55.549Z,1303.61
2022-11-15T04:45:55.530Z,1303.61
2022-11-15T04:47:03.034Z,1303.61
2022-11-15T04:47:55.507Z,1303.61
2022-11-15T04:48:58.601Z,1303.61
2022-11-15T04:49:55.497Z,1303.61
2022-11-15T04:50:55.469Z,1303.61
2022-11-15T04:51:55.479Z,1303.61
2022-11-15T04:52:55.469Z,1303.61
2022-11-15T04:53:55.440Z,1303.61
2022-11-15T04:54:55.459Z,1303.61
2022-11-15T04:55:55.414Z,1303.61
2022-11-15T04:56:55.409Z,1303.61
2022-11-15T04:57:55.421Z,1303.61
2022-11-15T04:58:55.389Z,1303.61
2022-11-15T04:59:55.383Z,1303.61
2022-11-15T05:00:55.433Z,1303.61
2022-11-15T05:01:55.364Z,1303.61
2022-11-15T05:02:55.348Z,1303.61
2022-11-15T05:03:55.326Z,1303.61
2022-11-15T05:04:55.320Z,1303.61
2022-11-15T05:05:55.307Z,1303.61
2022-11-15T05:06:55.349Z,1303.61
2022-11-15T05:07:55.283Z,1303.61
2022-11-15T05:08:55.316Z,1303.61
2022-11-15T05:09:55.274Z,1303.61
2022-11-15T05:10:55.253Z,1303.61
2022-11-15T05:11:55.291Z,1303.61
2022-11-15T05:12:55.232Z,1303.61
2022-11-15T05:13:55.215Z,1303.61
2022-11-15T05:14:55.238Z,1303.61
2022-11-15T05:15:55.197Z,1303.61
2022-11-15T05:16:55.186Z,1303.61
2022-11-15T05:17:55.184Z,1303.61
2022-11-15T05:18:55.167Z,1303.61
2022-11-15T05:19:55.163Z,1303.61
2022-11-15T05:20:55.144Z,1303.61
2022-11-15T05:21:55.140Z,1303.61
2022-11-15T05:22:55.132Z,1303.61
2022-11-15T05:23:55.107Z,1303.61
2022-11-15T05:24:55.119Z,1303.61
2022-11-15T05:25:55.095Z,1303.61
2022-11-15T05:26:55.078Z,1303.61
2022-11-15T05:27:55.065Z,1303.61
2022-11-15T05:28:55.062Z,1303.61
2022-11-15T05:29:55.041Z,1303.61
2022-11-15T05:30:55.048Z,1303.61
2022-11-15T05:31:55.039Z,1303.61
2022-11-15T05:32:55.014Z,1303.61
2022-11-15T05:33:55.000Z,1303.61
2022-11-15T05:34:54.993Z,1303.61
2022-11-15T05:35:54.991Z,1303.61
2022-11-15T05:36:54.971Z,1303.61
2022-11-15T05:37:54.956Z,1303.61
2022-11-15T05:38:54.973Z,1303.61
2022-11-15T05:39:54.930Z,1303.61
2022-11-15T05:40:54.950Z,1303.61
2022-11-15T05:41:54.926Z,1303.61
2022-11-15T05:42:54.921Z,1303.61
2022-11-15T05:43:54.899Z,1303.61
2022-11-15T05:44:54.881Z,1303.61
2022-11-15T05:45:54.877Z,1303.61
2022-11-15T05:46:54.862Z,1303.61
2022-11-15T05:47:54.844Z,1303.61
2022-11-15T05:48:54.849Z,1303.61
2022-11-15T05:49:54.822Z,1303.61
2022-11-15T05:50:54.816Z,1303.61
2022-11-15T05:51:54.805Z,1303.61
2022-11-15T05:52:54.794Z,1303.61
2022-11-15T05:53:54.820Z,1303.61
2022-11-15T05:54:54.787Z,1303.61
2022-11-15T05:55:54.757Z,1303.61
2022-11-15T05:56:54.769Z,1303.61
2022-11-15T05:57:54.737Z,1303.61
2022-11-15T05:58:59.276Z,1303.61
2022-11-15T05:59:55.724Z,1303.61
2022-11-15T06:00:54.708Z,1303.61
2022-11-15T06:01:54.722Z,1303.61
2022-11-15T06:02:54.692Z,1303.61
2022-11-15T06:03:54.695Z,1303.61
2022-11-15T06:04:54.682Z,1303.61
2022-11-15T06:05:54.660Z,1303.61
2022-11-15T06:06:54.785Z,1303.61
2022-11-15T06:07:54.625Z,1303.61
2022-11-15T06:08:54.655Z,1303.61
2022-11-15T06:09:54.603Z,1303.61
2022-11-15T06:10:54.616Z,1303.61
2022-11-15T06:11:54.582Z,1303.61
2022-11-15T06:12:54.596Z,1303.61
2022-11-15T06:13:54.558Z,1303.61
2022-11-15T06:14:54.561Z,1303.61
2022-11-15T06:15:54.550Z,1303.61
2022-11-15T06:16:54.533Z,1303.61
2022-11-15T06:17:54.518Z,1303.61
2022-11-15T06:18:54.511Z,1303.61
2022-11-15T06:19:54.501Z,1303.61
2022-11-15T06:20:54.502Z,1303.61
2022-11-15T06:21:54.484Z,1303.61
2022-11-15T06:22:54.467Z,1303.61
2022-11-15T06:23:54.451Z,1303.61
2022-11-15T06:24:54.447Z,1303.61
2022-11-15T06:25:56.139Z,1303.61
2022-11-15T06:26:54.438Z,1303.61
2022-11-15T06:27:54.409Z,1303.61
2022-11-15T06:28:54.419Z,1303.61
2022-11-15T06:29:54.388Z,1303.61
2022-11-15T06:30:54.392Z,1303.61
2022-11-15T06:31:54.377Z,1303.61
2022-11-15T06:32:54.358Z,1303.61
2022-11-15T06:33:54.342Z,1303.61
2022-11-15T06:34:54.340Z,1303.61
2022-11-15T06:35:54.368Z,1303.61
2022-11-15T06:36:54.314Z,1303.61
2022-11-15T06:37:54.302Z,1303.61
2022-11-15T06:38:54.352Z,1303.61
2022-11-15T06:39:54.286Z,1303.61
2022-11-15T06:40:56.091Z,1303.61
2022-11-15T06:41:54.275Z,1303.61
2022-11-15T06:42:54.250Z,1303.61
2022-11-15T06:43:54.252Z,1303.61
2022-11-15T06:44:54.352Z,1303.61
2022-11-15T06:45:54.221Z,1303.61
2022-11-15T06:46:54.241Z,1303.61
2022-11-15T06:48:01.731Z,1303.61
2022-11-15T06:48:55.129Z,1303.61
2022-11-15T06:49:54.185Z,1303.61
2022-11-15T06:50:54.238Z,1303.61
2022-11-15T06:51:54.179Z,1303.61
2022-11-15T06:52:54.159Z,1303.61
2022-11-15T06:53:54.145Z,1303.61
2022-11-15T06:54:54.145Z,1303.61
2022-11-15T06:55:55.566Z,1303.61
2022-11-15T06:56:54.096Z,1303.61
2022-11-15T06:57:54.081Z,1303.61
2022-11-15T06:58:54.113Z,1303.61
2022-11-15T06:59:54.191Z,1303.61
2022-11-15T07:00:54.123Z,1303.61
2022-11-15T07:01:54.041Z,1303.61
2022-11-15T07:02:54.034Z,1303.61
2022-11-15T07:03:54.173Z,1303.61
2022-11-15T07:04:54.231Z,1303.61
2022-11-15T07:05:54.024Z,1303.61
2022-11-15T07:06:54.035Z,1303.61
2022-11-15T07:07:53.989Z,1303.61
2022-11-15T07:08:53.988Z,1303.61
2022-11-15T07:09:53.959Z,1303.61
2022-11-15T07:10:55.968Z,1303.61
2022-11-15T07:11:54.000Z,1303.61
2022-11-15T07:12:53.933Z,1303.61
2022-11-15T07:13:54.665Z,1303.61
2022-11-15T07:14:53.910Z,1303.61
2022-11-15T07:15:54.675Z,1303.61
2022-11-15T07:16:53.923Z,1303.61
2022-11-15T07:17:53.894Z,1303.61
2022-11-15T07:18:53.935Z,1303.61
2022-11-15T07:19:53.867Z,1303.61
2022-11-15T07:20:53.898Z,1303.61
2022-11-15T07:21:53.843Z,1303.61
2022-11-15T07:22:54.830Z,1303.61
2022-11-15T07:23:53.808Z,1303.61
2022-11-15T07:24:53.804Z,1303.61
2022-11-15T07:25:53.799Z,1303.61
2022-11-15T07:26:53.771Z,1303.61
2022-11-15T07:27:53.793Z,1303.61
2022-11-15T07:28:53.762Z,1303.61
2022-11-15T07:29:53.760Z,1303.61
2022-11-15T07:30:53.757Z,1303.61
2022-11-15T07:31:53.734Z,1303.61
2022-11-15T07:32:53.736Z,1303.61
2022-11-15T07:33:53.703Z,1303.61
2022-11-15T07:34:55.637Z,1303.61
2022-11-15T07:35:53.699Z,1303.61
2022-11-15T07:36:53.692Z,1303.61
2022-11-15T07:37:53.681Z,1303.61
2022-11-15T07:38:53.655Z,1303.61
2022-11-15T07:39:53.651Z,1303.61
2022-11-15T07:40:53.620Z,1303.61
2022-11-15T07:41:53.604Z,1303.61
2022-11-15T07:42:53.610Z,1303.61
2022-11-15T07:43:53.610Z,1303.61
2022-11-15T07:44:53.576Z,1303.61
2022-11-15T07:45:58.845Z,1303.61
2022-11-15T07:46:54.553Z,1303.61
2022-11-15T07:47:53.560Z,1303.61
2022-11-15T07:48:53.569Z,1303.61
2022-11-15T07:49:53.538Z,1303.61
2022-11-15T07:50:53.583Z,1303.61
2022-11-15T07:51:53.496Z,1303.61
2022-11-15T07:52:53.499Z,1303.61
2022-11-15T07:53:53.490Z,1303.61
2022-11-15T07:54:53.486Z,1303.61
2022-11-15T07:55:53.495Z,1303.61
2022-11-15T07:56:53.592Z,1303.61
2022-11-15T07:57:53.451Z,1303.61
2022-11-15T07:58:53.446Z,1303.61
2022-11-15T07:59:53.435Z,1303.61
2022-11-15T08:00:53.425Z,1303.61
2022-11-15T08:01:53.618Z,1303.61
2022-11-15T08:02:53.612Z,1303.61
2022-11-15T08:03:53.379Z,1303.61
2022-11-15T08:04:53.388Z,1303.61
2022-11-15T08:05:53.376Z,1303.61
2022-11-15T08:06:53.437Z,1303.61
2022-11-15T08:07:53.333Z,1303.61
2022-11-15T08:08:53.337Z,1303.61
2022-11-15T08:09:53.337Z,1303.61
2022-11-15T08:10:53.403Z,1303.61
2022-11-15T08:11:53.276Z,1303.61
2022-11-15T08:12:53.501Z,1303.61
2022-11-15T08:13:53.259Z,1303.61
2022-11-15T08:14:53.248Z,1303.61
2022-11-15T08:15:57.549Z,1303.61
2022-11-15T08:16:53.232Z,1303.61
2022-11-15T08:17:53.261Z,1303.61
2022-11-15T08:18:53.216Z,1303.61
2022-11-15T08:19:53.221Z,1303.61
2022-11-15T08:20:53.244Z,1303.61
2022-11-15T08:21:53.204Z,1303.61
2022-11-15T08:22:53.184Z,1303.61
2022-11-15T08:23:53.208Z,1303.61
2022-11-15T08:24:53.174Z,1303.61
2022-11-15T08:25:53.169Z,1303.61
2022-11-15T08:26:53.226Z,1303.61
2022-11-15T08:27:53.732Z,1303.61
2022-11-15T08:28:53.193Z,1303.61
2022-11-15T08:29:56.844Z,1303.61
2022-11-15T08:30:54.114Z,1303.61
2022-11-15T08:31:53.068Z,1303.61
2022-11-15T08:32:53.072Z,1303.61
2022-11-15T08:33:53.118Z,1303.61
2022-11-15T08:34:53.057Z,1303.61
2022-11-15T08:35:53.024Z,1303.61
2022-11-15T08:36:53.035Z,1303.61
2022-11-15T08:37:52.990Z,1303.61
2022-11-15T08:38:53.014Z,1303.61
2022-11-15T08:39:52.973Z,1303.61
2022-11-15T08:40:53.967Z,1303.61
2022-11-15T08:41:52.964Z,1303.61
2022-11-15T08:42:52.967Z,1303.61
2022-11-15T08:43:52.955Z,1303.61
2022-11-15T08:44:52.952Z,1303.61
2022-11-15T08:45:53.052Z,1303.61
2022-11-15T08:46:52.910Z,1303.61
2022-11-15T08:47:54.609Z,1303.61
2022-11-15T08:49:00.403Z,1303.61
2022-11-15T08:49:52.857Z,1303.61
2022-11-15T08:50:52.856Z,1303.61
2022-11-15T08:51:52.839Z,1303.61
2022-11-15T08:52:52.845Z,1303.61
2022-11-15T08:53:52.831Z,1303.61
2022-11-15T08:54:52.813Z,1303.61
2022-11-15T08:55:52.793Z,1303.61
2022-11-15T08:56:52.783Z,1303.61
2022-11-15T08:57:52.782Z,1303.61
2022-11-15T08:58:52.787Z,1303.61
2022-11-15T08:59:52.746Z,1303.61
2022-11-15T09:00:52.826Z,1303.61
2022-11-15T09:01:53.069Z,1303.61
2022-11-15T09:02:53.151Z,1303.61
2022-11-15T09:03:53.679Z,1303.61
2022-11-15T09:05:03.206Z,1303.61
2022-11-15T09:05:52.678Z,1303.61
2022-11-15T09:06:56.194Z,1303.61
2022-11-15T09:08:25.503Z,1303.61
2022-11-15T09:08:53.929Z,1303.61
2022-11-15T09:09:52.685Z,1303.61
2022-11-15T09:10:52.740Z,1303.61
2022-11-15T09:12:01.378Z,1303.61
2022-11-15T09:12:54.168Z,1303.61
2022-11-15T09:13:53.171Z,1303.61
2022-11-15T09:14:52.612Z,1303.61
2022-11-15T09:15:52.684Z,1303.61
2022-11-15T09:16:57.876Z,1303.61
2022-11-15T09:19:05.397Z,1303.61
2022-11-15T09:20:03.582Z,1303.61
2022-11-15T09:21:02.539Z,1303.61
2022-11-15T09:22:02.520Z,1303.11
2022-11-15T09:23:02.553Z,1302.77
2022-11-15T09:24:02.538Z,1301.93
2022-11-15T09:25:03.205Z,1301.08
2022-11-15T09:26:02.478Z,1300.92
2022-11-15T09:27:02.438Z,1300.58
2022-11-15T09:28:02.461Z,1300.24
2022-11-15T09:29:02.413Z,1300.07
2022-11-15T09:30:02.437Z,1300.07
2022-11-15T09:31:02.397Z,1299.74
2022-11-15T09:32:02.420Z,1299.74
2022-11-15T09:33:02.378Z,1299.40
2022-11-15T09:34:02.377Z,1299.06
2022-11-15T09:35:02.357Z,1299.06
2022-11-15T09:36:02.347Z,1298.72
2022-11-15T09:37:02.359Z,1298.22
2022-11-15T09:38:02.335Z,1297.71
2022-11-15T09:39:02.368Z,1297.21
2022-11-15T09:40:02.329Z,1297.04
2022-11-15T09:41:02.316Z,1296.70
2022-11-15T09:42:02.288Z,1296.53
2022-11-15T09:43:02.270Z,1296.53
2022-11-15T09:44:02.271Z,1296.20
2022-11-15T09:45:02.311Z,1296.03
2022-11-15T09:46:02.537Z,1295.86
2022-11-15T09:47:02.306Z,1295.18
2022-11-15T09:48:02.266Z,1294.68
2022-11-15T09:49:02.208Z,1293.84
2022-11-15T09:50:03.061Z,1292.99
2022-11-15T09:51:02.683Z,1292.83
2022-11-15T09:52:03.074Z,1292.66
2022-11-15T09:53:04.010Z,1292.66
2022-11-15T09:54:37.930Z,1292.99
2022-11-15T09:55:04.112Z,1292.66
2022-11-15T09:56:02.455Z,1292.66
2022-11-15T09:57:02.200Z,1292.32
2022-11-15T09:58:02.997Z,1291.65
2022-11-15T09:59:02.110Z,1290.80
2022-11-15T10:00:23.785Z,1290.47
2022-11-15T10:01:03.407Z,1289.46
2022-11-15T10:02:03.165Z,1288.95
2022-11-15T10:03:02.101Z,1288.78
2022-11-15T10:04:06.567Z,1288.44
2022-11-15T10:05:03.038Z,1287.94
2022-11-15T10:06:02.030Z,1286.93
2022-11-15T10:07:02.127Z,1286.42
2022-11-15T10:08:02.063Z,1285.41
2022-11-15T10:09:03.026Z,1284.91
2022-11-15T10:10:02.020Z,1284.74
2022-11-15T10:12:03.115Z,1283.90
2022-11-15T10:13:02.100Z,1282.38
2022-11-15T10:14:02.016Z,1280.86
2022-11-15T10:15:02.120Z,1281.54
2022-11-15T10:16:02.083Z,1281.54
2022-11-15T10:17:01.947Z,1281.37
2022-11-15T10:18:01.965Z,1280.53
2022-11-15T10:19:02.031Z,1279.69
2022-11-15T10:20:05.723Z,1278.84
2022-11-15T10:21:02.064Z,1278.34
2022-11-15T10:22:01.882Z,1278.34
2022-11-15T10:23:01.851Z,1278.00
2022-11-15T10:24:01.868Z,1277.83
2022-11-15T10:25:01.837Z,1277.50
2022-11-15T10:26:06.559Z,1277.50
2022-11-15T10:27:02.942Z,1277.50
2022-11-15T10:28:01.803Z,1276.65
2022-11-15T10:29:01.757Z,1276.65
2022-11-15T10:30:01.758Z,1276.32
2022-11-15T10:31:01.838Z,1275.81
2022-11-15T10:32:01.771Z,1275.31
2022-11-15T10:33:01.755Z,1275.14
2022-11-15T10:34:01.704Z,1274.63
2022-11-15T10:35:01.835Z,1274.63
2022-11-15T10:36:01.685Z,1274.46
2022-11-15T10:37:01.687Z,1274.13
2022-11-15T10:38:01.667Z,1273.62
2022-11-15T10:39:01.654Z,1273.62
2022-11-15T10:40:01.636Z,1273.79
2022-11-15T10:41:01.783Z,1274.13
2022-11-15T10:42:05.040Z,1274.13
2022-11-15T10:43:02.597Z,1273.62
2022-11-15T10:44:01.621Z,1273.12
2022-11-15T10:45:01.582Z,1272.78
2022-11-15T10:46:18.700Z,1271.77
2022-11-15T10:47:02.566Z,1271.94
2022-11-15T10:48:01.551Z,1271.77
2022-11-15T10:49:01.531Z,1271.43
2022-11-15T10:50:01.548Z,1271.10
2022-11-15T10:51:01.523Z,1270.93
2022-11-15T10:52:01.583Z,1271.43
2022-11-15T10:53:01.489Z,1270.76
2022-11-15T10:54:01.509Z,1270.93
2022-11-15T10:55:02.482Z,1269.92
2022-11-15T10:56:01.470Z,1270.25
2022-11-15T10:57:01.454Z,1270.76
2022-11-15T10:58:01.532Z,1270.59
2022-11-15T10:59:01.423Z,1270.42
2022-11-15T11:00:01.486Z,1270.59
2022-11-15T11:01:02.129Z,1270.25
2022-11-15T11:02:01.412Z,1269.41
2022-11-15T11:03:01.398Z,1269.58
2022-11-15T11:04:01.407Z,1268.91
2022-11-15T11:05:01.406Z,1267.06
2022-11-15T11:06:02.140Z,1267.56
2022-11-15T11:07:01.412Z,1267.22
2022-11-15T11:08:01.352Z,1266.89
2022-11-15T11:09:01.429Z,1266.38
2022-11-15T11:10:01.326Z,1265.54
2022-11-15T11:11:03.388Z,1265.71
2022-11-15T11:12:01.285Z,1264.19
2022-11-15T11:13:02.044Z,1264.36
2022-11-15T11:14:01.299Z,1264.53
2022-11-15T11:15:02.014Z,1264.53
2022-11-15T11:16:03.016Z,1263.86
2022-11-15T11:17:01.269Z,1263.86
2022-11-15T11:18:02.105Z,1264.03
2022-11-15T11:19:09.535Z,1263.52
2022-11-15T11:20:04.041Z,1263.69
2022-11-15T11:21:01.364Z,1263.02
2022-11-15T11:22:03.038Z,1262.51
2022-11-15T11:23:02.039Z,1261.84
2022-11-15T11:24:03.112Z,1261.67
2022-11-15T11:25:06.038Z,1261.33
2022-11-15T11:26:06.091Z,1260.66
2022-11-15T11:27:03.037Z,1260.66
2022-11-15T11:28:02.039Z,1261.16
2022-11-15T11:29:01.125Z,1261.16
2022-11-15T11:30:04.539Z,1261.16
2022-11-15T11:31:02.542Z,1261.50
2022-11-15T11:32:04.040Z,1261.50
2022-11-15T11:33:02.542Z,1262.17
2022-11-15T11:34:02.680Z,1262.51
2022-11-15T11:35:03.670Z,1262.34
2022-11-15T11:36:02.623Z,1262.17
2022-11-15T11:37:05.544Z,1262.17
2022-11-15T11:38:06.542Z,1261.50
2022-11-15T11:39:01.546Z,1261.50
2022-11-15T11:40:06.120Z,1261.50
2022-11-15T11:41:02.622Z,1261.00
2022-11-15T11:42:04.044Z,1259.99
2022-11-15T11:43:01.583Z,1259.48
2022-11-15T11:44:01.648Z,1259.65
2022-11-15T11:45:02.547Z,1259.82
2022-11-15T11:46:02.043Z,1259.31
2022-11-15T11:47:01.543Z,1259.14
2022-11-15T11:48:04.568Z,1259.82
2022-11-15T11:49:07.595Z,1259.99
2022-11-15T11:50:05.591Z,1258.98
2022-11-15T11:51:02.043Z,1257.80
2022-11-15T11:52:01.599Z,1257.29
2022-11-15T11:53:04.503Z,1256.62
2022-11-15T11:54:05.046Z,1255.95
2022-11-15T11:55:01.565Z,1255.95
2022-11-15T11:56:02.549Z,1255.61
2022-11-15T11:57:01.599Z,1255.44
2022-11-15T11:58:02.547Z,1255.10
2022-11-15T11:59:01.543Z,1255.44
2022-11-15T12:00:08.546Z,1255.78
2022-11-15T12:01:01.553Z,1255.44
2022-11-15T12:02:01.775Z,1255.27
2022-11-15T12:03:01.478Z,1255.10
2022-11-15T12:04:01.785Z,1254.77
2022-11-15T12:05:03.545Z,1254.43
2022-11-15T12:06:02.727Z,1251.23
2022-11-15T12:07:03.666Z,1249.21
2022-11-15T12:08:04.149Z,1248.04